createdAt,value
2018-06-11T00:01:03.539Z,25.27
2018-06-11T00:03:08.271Z,23.30
2018-06-11T00:05:12.955Z,22.50
2018-06-11T00:07:17.706Z,23.20
2018-06-11T00:09:22.537Z,24.13
2018-06-11T00:11:27.165Z,27.70
2018-06-11T00:13:32.070Z,25.17
2018-06-11T00:15:36.742Z,25.53
2018-06-11T00:17:41.374Z,28.93
2018-06-11T00:19:46.053Z,22.77
2018-06-11T00:21:50.700Z,26.07
2018-06-11T00:23:55.391Z,25.37
2018-06-11T00:26:00.067Z,24.77
2018-06-11T00:28:05.267Z,25.60
2018-06-11T00:30:10.607Z,29.10
2018-06-11T00:32:15.333Z,25.40
2018-06-11T00:34:19.985Z,24.10
2018-06-11T00:36:24.599Z,29.20
2018-06-11T00:38:29.621Z,25.10
2018-06-11T00:40:34.304Z,24.73
2018-06-11T00:42:39.005Z,29.93
2018-06-11T00:44:43.885Z,23.00
2018-06-11T00:46:48.481Z,29.50
2018-06-11T00:48:53.245Z,26.67
2018-06-11T00:50:58.014Z,28.50
2018-06-11T00:53:02.665Z,28.33
2018-06-11T00:55:07.330Z,27.67
2018-06-11T00:57:12.098Z,26.67
2018-06-11T00:59:16.726Z,29.70
2018-06-11T01:01:21.367Z,27.50
2018-06-11T01:03:26.136Z,25.97
2018-06-11T01:05:30.836Z,27.07
2018-06-11T01:07:35.650Z,33.27
2018-06-11T01:09:40.299Z,24.47
2018-06-11T01:11:44.973Z,24.10
2018-06-11T01:13:49.595Z,31.13
2018-06-11T01:15:54.314Z,30.13
2018-06-11T01:17:59.009Z,28.77
2018-06-11T01:20:03.819Z,29.27
2018-06-11T01:22:08.546Z,30.23
2018-06-11T01:24:13.226Z,32.40
2018-06-11T01:26:17.914Z,29.13
2018-06-11T01:28:22.605Z,28.13
2018-06-11T01:30:27.245Z,28.70
2018-06-11T01:32:31.970Z,22.97
2018-06-11T01:34:36.703Z,25.83
2018-06-11T01:36:41.449Z,28.87
2018-06-11T01:38:46.089Z,27.80
2018-06-11T01:40:50.460Z,33.53
2018-06-11T01:42:55.253Z,26.83
2018-06-11T01:44:59.877Z,28.57
2018-06-11T01:47:04.590Z,29.23
2018-06-11T01:49:09.311Z,27.70
2018-06-11T01:51:14.003Z,29.13
2018-06-11T01:53:18.706Z,25.10
2018-06-11T01:55:23.182Z,33.13
2018-06-11T01:57:28.038Z,30.83
2018-06-11T01:59:32.936Z,30.33
2018-06-11T02:01:37.556Z,29.27
2018-06-11T02:03:42.232Z,35.63
2018-06-11T02:05:46.928Z,31.90
2018-06-11T02:07:51.578Z,35.43
2018-06-11T02:09:56.331Z,35.07
2018-06-11T02:12:00.672Z,33.13
2018-06-11T02:14:05.457Z,30.80
2018-06-11T02:16:10.319Z,35.30
2018-06-11T02:18:15.043Z,32.00
2018-06-11T02:20:19.768Z,32.57
2018-06-11T02:22:24.185Z,33.57
2018-06-11T02:24:28.817Z,31.60
2018-06-11T02:26:33.494Z,31.37
2018-06-11T02:28:38.118Z,36.77
2018-06-11T02:30:42.836Z,34.30
2018-06-11T02:32:47.503Z,27.30
2018-06-11T02:34:52.113Z,35.57
2018-06-11T02:36:56.750Z,33.43
2018-06-11T02:39:01.360Z,30.17
2018-06-11T02:41:06.093Z,43.10
2018-06-11T02:43:10.794Z,34.57
2018-06-11T02:45:15.517Z,33.83
2018-06-11T02:47:20.141Z,36.07
2018-06-11T02:49:24.525Z,36.63
2018-06-11T02:51:29.174Z,27.60
2018-06-11T02:53:33.827Z,33.47
2018-06-11T02:55:38.528Z,40.10
2018-06-11T02:57:43.221Z,31.47
2018-06-11T02:59:47.997Z,32.30
2018-06-11T03:01:52.721Z,38.73
2018-06-11T03:03:57.334Z,39.00
2018-06-11T03:06:02.006Z,38.47
2018-06-11T03:08:06.725Z,33.87
2018-06-11T03:10:11.367Z,32.33
2018-06-11T03:12:16.061Z,36.57
2018-06-11T03:14:20.749Z,37.27
2018-06-11T03:16:25.439Z,33.50
2018-06-11T03:18:30.166Z,36.40
2018-06-11T03:20:34.973Z,34.67
2018-06-11T03:22:39.662Z,33.40
2018-06-11T03:24:44.350Z,32.50
2018-06-11T03:26:49.095Z,41.77
2018-06-11T03:28:53.779Z,44.10
2018-06-11T03:30:58.393Z,32.67
2018-06-11T03:33:03.085Z,31.93
2018-06-11T03:35:07.797Z,29.93
2018-06-11T03:37:12.733Z,34.70
2018-06-11T03:39:17.451Z,33.20
2018-06-11T03:41:22.229Z,35.83
2018-06-11T03:43:26.858Z,27.57
2018-06-11T03:45:31.652Z,32.80
2018-06-11T03:47:36.269Z,32.90
2018-06-11T03:49:40.971Z,27.67
2018-06-11T03:51:45.662Z,32.63
2018-06-11T03:53:50.390Z,41.40
2018-06-11T03:55:55.165Z,36.13
2018-06-11T03:57:59.991Z,42.17
2018-06-11T04:00:04.773Z,30.67
2018-06-11T04:02:09.515Z,32.67
2018-06-11T04:04:14.249Z,31.33
2018-06-11T04:06:18.927Z,32.83
2018-06-11T04:08:23.579Z,35.40
2018-06-11T04:10:28.251Z,36.07
2018-06-11T04:12:32.934Z,28.50
2018-06-11T04:14:37.581Z,25.70
2018-06-11T04:16:42.295Z,42.93
2018-06-11T04:18:46.944Z,33.03
2018-06-11T04:20:51.639Z,31.60
2018-06-11T04:22:56.401Z,28.83
2018-06-11T04:25:00.986Z,46.03
2018-06-11T04:27:05.625Z,33.77
2018-06-11T04:29:10.391Z,47.40
2018-06-11T04:31:15.222Z,30.57
2018-06-11T04:33:19.875Z,31.97
2018-06-11T04:35:24.530Z,31.97
2018-06-11T04:37:29.173Z,31.10
2018-06-11T04:39:33.844Z,30.80
2018-06-11T04:41:38.599Z,30.33
2018-06-11T04:43:43.236Z,27.13
2018-06-11T04:45:47.885Z,37.83
2018-06-11T04:47:52.559Z,27.70
2018-06-11T04:49:57.318Z,37.30
2018-06-11T04:52:02.150Z,36.10
2018-06-11T04:54:06.992Z,31.20
2018-06-11T04:56:11.833Z,38.67
2018-06-11T04:58:16.588Z,29.90
2018-06-11T05:00:21.342Z,31.90
2018-06-11T05:02:26.192Z,29.43
2018-06-11T05:04:30.934Z,30.73
2018-06-11T05:06:35.831Z,28.00
2018-06-11T05:08:40.504Z,30.17
2018-06-11T05:10:45.183Z,27.10
2018-06-11T05:12:50.072Z,36.03
2018-06-11T05:14:54.946Z,30.23
2018-06-11T05:16:59.740Z,44.70
2018-06-11T05:19:04.486Z,32.03
2018-06-11T05:21:09.219Z,32.20
2018-06-11T05:23:14.168Z,39.07
2018-06-11T05:25:18.966Z,35.20
2018-06-11T05:27:23.675Z,33.57
2018-06-11T05:29:28.468Z,45.27
2018-06-11T05:31:33.250Z,41.30
2018-06-11T05:33:38.189Z,39.17
2018-06-11T05:35:43.453Z,32.00
2018-06-11T05:37:48.167Z,36.70
2018-06-11T05:39:52.899Z,38.03
2018-06-11T05:41:57.843Z,31.70
2018-06-11T05:44:02.673Z,39.87
2018-06-11T05:46:07.418Z,32.47
2018-06-11T05:48:12.091Z,38.43
2018-06-11T05:50:16.994Z,38.50
2018-06-11T05:52:21.652Z,34.80
2018-06-11T05:54:26.350Z,39.57
2018-06-11T05:56:31.088Z,32.17
2018-06-11T05:58:36.377Z,37.60
2018-06-11T06:00:41.155Z,40.97
2018-06-11T06:02:46.109Z,37.87
2018-06-11T06:04:51.130Z,34.03
2018-06-11T06:06:55.995Z,39.40
2018-06-11T06:09:00.800Z,36.00
2018-06-11T06:11:05.483Z,46.90
2018-06-11T06:13:10.308Z,36.53
2018-06-11T06:15:15.159Z,30.73
2018-06-11T06:17:19.943Z,33.83
2018-06-11T06:19:24.690Z,44.13
2018-06-11T06:21:29.495Z,39.83
2018-06-11T06:23:34.258Z,44.40
2018-06-11T06:25:39.246Z,35.20
2018-06-11T06:27:43.970Z,37.57
2018-06-11T06:29:48.703Z,38.37
2018-06-11T06:31:53.440Z,37.37
2018-06-11T06:33:58.226Z,30.13
2018-06-11T06:36:03.040Z,33.13
2018-06-11T06:38:07.887Z,38.33
2018-06-11T06:40:13.001Z,37.07
2018-06-11T06:42:17.705Z,37.73
2018-06-11T06:44:22.505Z,45.50
2018-06-11T06:46:27.243Z,34.60
2018-06-11T06:48:31.977Z,41.40
2018-06-11T06:50:36.695Z,41.73
2018-06-11T06:52:41.378Z,43.00
2018-06-11T06:54:46.047Z,31.30
2018-06-11T06:56:50.677Z,36.00
2018-06-11T06:58:55.473Z,31.93
2018-06-11T07:01:00.226Z,34.23
2018-06-11T07:03:05.038Z,31.40
2018-06-11T07:05:09.925Z,33.20
2018-06-11T07:07:14.724Z,31.43
2018-06-11T07:09:19.466Z,36.57
2018-06-11T07:11:24.175Z,30.27
2018-06-11T07:13:29.105Z,29.97
2018-06-11T07:15:33.899Z,32.47
2018-06-11T07:17:38.891Z,38.87
2018-06-11T07:19:43.718Z,31.27
2018-06-11T07:21:49.087Z,36.73
2018-06-11T07:23:53.959Z,38.60
2018-06-11T07:25:58.799Z,33.27
2018-06-11T07:28:03.497Z,41.60
2018-06-11T07:30:08.217Z,29.27
2018-06-11T07:32:13.000Z,34.23
2018-06-11T07:34:18.750Z,26.40
2018-06-11T07:36:23.604Z,25.93
2018-06-11T07:38:28.676Z,31.60
2018-06-11T07:40:34.014Z,26.00
2018-06-11T07:42:38.927Z,28.30
2018-06-11T07:44:43.757Z,31.93
2018-06-11T07:46:48.579Z,30.00
2018-06-11T07:48:53.594Z,32.80
2018-06-11T07:50:58.598Z,33.27
2018-06-11T07:53:03.515Z,40.13
2018-06-11T07:55:08.421Z,33.60
2018-06-11T07:57:13.125Z,29.83
2018-06-11T07:59:17.734Z,32.40
2018-06-11T08:01:22.532Z,29.63
2018-06-11T08:03:27.315Z,29.40
2018-06-11T08:05:32.088Z,33.23
2018-06-11T08:07:36.927Z,27.43
2018-06-11T08:09:41.740Z,35.00
2018-06-11T08:11:46.544Z,38.97
2018-06-11T08:13:51.254Z,41.27
2018-06-11T08:15:56.019Z,35.63
2018-06-11T08:18:00.758Z,28.33
2018-06-11T08:20:05.762Z,30.13
2018-06-11T08:22:10.589Z,33.83
2018-06-11T08:24:15.461Z,32.00
2018-06-11T08:26:20.460Z,25.70
2018-06-11T08:28:25.094Z,30.10
2018-06-11T08:30:29.877Z,27.70
2018-06-11T08:32:34.545Z,28.07
2018-06-11T08:34:39.318Z,26.40
2018-06-11T08:36:44.058Z,28.10
2018-06-11T08:38:48.911Z,28.20
2018-06-11T08:40:53.607Z,25.90
2018-06-11T08:42:58.295Z,28.70
2018-06-11T08:45:03.189Z,34.70
2018-06-11T08:47:07.904Z,32.87
2018-06-11T08:49:12.629Z,24.90
2018-06-11T08:51:17.805Z,27.10
2018-06-11T08:53:22.525Z,24.80
2018-06-11T08:55:27.294Z,24.57
2018-06-11T08:57:32.000Z,22.80
2018-06-11T08:59:36.715Z,26.23
2018-06-11T09:01:41.371Z,22.17
2018-06-11T09:03:46.162Z,27.37
2018-06-11T09:05:50.862Z,23.40
2018-06-11T09:07:55.770Z,20.80
2018-06-11T09:10:00.674Z,22.40
2018-06-11T09:12:05.555Z,24.47
2018-06-11T09:14:10.365Z,30.47
2018-06-11T09:16:15.370Z,28.27
2018-06-11T09:18:20.426Z,26.03
2018-06-11T09:20:25.360Z,25.40
2018-06-11T09:22:30.241Z,25.37
2018-06-11T09:24:35.118Z,20.67
2018-06-11T09:26:40.016Z,24.30
2018-06-11T09:28:44.772Z,26.57
2018-06-11T09:30:49.574Z,24.60
2018-06-11T09:32:54.489Z,27.90
2018-06-11T09:34:59.364Z,26.67
2018-06-11T09:37:04.104Z,23.50
2018-06-11T09:39:09.900Z,21.50
2018-06-11T09:41:15.018Z,20.97
2018-06-11T09:43:19.914Z,25.90
2018-06-11T09:45:24.748Z,21.50
2018-06-11T09:47:29.475Z,24.60
2018-06-11T09:49:34.143Z,20.60
2018-06-11T09:51:39.008Z,17.53
2018-06-11T09:53:43.927Z,24.40
2018-06-11T09:55:48.945Z,21.20
2018-06-11T09:57:53.792Z,27.07
2018-06-11T09:59:58.857Z,19.70
2018-06-11T10:02:03.894Z,23.20
2018-06-11T10:04:08.719Z,20.10
2018-06-11T10:06:13.713Z,21.60
2018-06-11T10:08:18.885Z,26.80
2018-06-11T10:10:23.672Z,20.73
2018-06-11T10:12:28.578Z,25.60
2018-06-11T10:14:33.408Z,24.67
2018-06-11T10:16:38.364Z,20.53
2018-06-11T10:18:43.185Z,21.57
2018-06-11T10:20:47.988Z,28.20
2018-06-11T10:22:52.898Z,20.70
2018-06-11T10:24:58.146Z,27.60
2018-06-11T10:27:02.824Z,20.63
2018-06-11T10:29:07.637Z,23.77
2018-06-11T10:31:13.397Z,20.20
2018-06-11T10:33:18.144Z,23.97
2018-06-11T10:35:22.811Z,25.60
2018-06-11T10:37:27.642Z,22.30
2018-06-11T10:39:32.372Z,25.70
2018-06-11T10:41:37.175Z,23.10
2018-06-11T10:43:42.048Z,29.30
2018-06-11T10:45:46.764Z,26.90
2018-06-11T10:47:52.186Z,22.57
2018-06-11T10:49:57.325Z,23.43
2018-06-11T10:52:02.433Z,24.90
2018-06-11T10:54:07.518Z,26.50
2018-06-11T10:56:12.267Z,23.23
2018-06-11T10:58:17.072Z,26.87
2018-06-11T11:00:21.801Z,23.37
2018-06-11T11:02:26.722Z,19.27
2018-06-11T11:04:31.461Z,26.17
2018-06-11T11:06:36.292Z,21.90
2018-06-11T11:08:41.159Z,22.50
2018-06-11T11:10:46.060Z,22.53
2018-06-11T11:12:50.832Z,19.10
2018-06-11T11:14:55.812Z,20.97
2018-06-11T11:17:00.591Z,22.70
2018-06-11T11:19:05.514Z,18.93
2018-06-11T11:21:10.280Z,28.20
2018-06-11T11:23:15.011Z,23.53
2018-06-11T11:25:19.934Z,26.70
2018-06-11T11:27:24.712Z,22.90
2018-06-11T11:29:29.457Z,20.40
2018-06-11T11:31:34.249Z,36.80
2018-06-11T11:33:39.291Z,31.93
2018-06-11T11:35:44.022Z,25.23
2018-06-11T11:37:49.134Z,29.57
2018-06-11T11:39:53.889Z,22.23
2018-06-11T11:41:58.743Z,31.93
2018-06-11T11:44:03.625Z,32.43
2018-06-11T11:46:08.454Z,29.47
2018-06-11T11:48:13.594Z,26.93
2018-06-11T11:50:18.623Z,30.33
2018-06-11T11:52:23.757Z,31.73
2018-06-11T11:54:29.048Z,35.87
2018-06-11T11:56:34.226Z,35.50
2018-06-11T11:58:39.181Z,33.80
2018-06-11T12:00:44.142Z,34.70
2018-06-11T12:02:49.039Z,38.80
2018-06-11T12:04:53.847Z,31.23
2018-06-11T12:06:58.641Z,32.17
2018-06-11T12:09:03.508Z,34.73
2018-06-11T12:11:08.440Z,34.40
2018-06-11T12:13:13.154Z,35.63
2018-06-11T12:15:17.876Z,36.33
2018-06-11T12:17:22.944Z,32.73
2018-06-11T12:19:27.797Z,32.00
2018-06-11T12:21:32.539Z,32.47
2018-06-11T12:23:37.515Z,35.60
2018-06-11T12:25:42.346Z,31.50
2018-06-11T12:27:47.614Z,27.87
2018-06-11T12:29:52.452Z,29.40
2018-06-11T12:31:57.722Z,25.60
2018-06-11T12:34:02.517Z,41.10
2018-06-11T12:36:07.638Z,25.20
2018-06-11T12:38:12.438Z,26.87
2018-06-11T12:40:17.201Z,27.67
2018-06-11T12:42:22.114Z,29.93
2018-06-11T12:44:27.114Z,24.53
2018-06-11T12:46:32.000Z,28.60
2018-06-11T12:48:36.796Z,24.40
2018-06-11T12:50:41.740Z,21.50
2018-06-11T12:52:46.739Z,19.57
2018-06-11T12:54:51.540Z,19.00
2018-06-11T12:56:56.342Z,22.20
2018-06-11T12:59:01.246Z,22.30
2018-06-11T13:01:06.055Z,22.67
2018-06-11T13:03:11.061Z,16.93
2018-06-11T13:05:16.008Z,19.70
2018-06-11T13:07:20.990Z,20.20
2018-06-11T13:09:25.987Z,18.37
2018-06-11T13:11:30.817Z,16.27
2018-06-11T13:13:35.610Z,13.63
2018-06-11T13:15:40.381Z,14.30
2018-06-11T13:17:45.245Z,13.87
2018-06-11T13:19:50.635Z,12.10
2018-06-11T13:21:55.598Z,12.03
2018-06-11T13:24:00.576Z,16.43
2018-06-11T13:26:05.424Z,11.37
2018-06-11T13:28:10.176Z,10.97
2018-06-11T13:30:14.845Z,15.33
2018-06-11T13:32:19.545Z,9.60
2018-06-11T13:34:24.346Z,11.30
2018-06-11T13:36:29.112Z,13.27
2018-06-11T13:38:33.932Z,10.47
2018-06-11T13:40:38.656Z,12.53
2018-06-11T13:42:43.509Z,14.20
2018-06-11T13:44:48.282Z,11.33
2018-06-11T13:46:53.425Z,11.97
2018-06-11T13:48:58.197Z,10.17
2018-06-11T13:51:03.036Z,11.70
2018-06-11T13:53:07.914Z,14.93
2018-06-11T13:55:12.651Z,10.70
2018-06-11T13:57:17.361Z,7.93
2018-06-11T13:59:22.087Z,14.10
2018-06-11T14:01:26.882Z,11.40
2018-06-11T14:03:31.683Z,19.00
2018-06-11T14:05:36.656Z,9.87
2018-06-11T14:07:41.412Z,10.03
2018-06-11T14:09:46.201Z,13.40
2018-06-11T14:11:50.955Z,16.33
2018-06-11T14:13:56.751Z,10.93
2018-06-11T14:16:01.668Z,11.73
2018-06-11T14:18:06.766Z,16.70
2018-06-11T14:20:11.517Z,12.80
2018-06-11T14:22:16.435Z,9.57
2018-06-11T14:24:21.251Z,8.20
2018-06-11T14:26:26.021Z,8.17
2018-06-11T14:28:30.807Z,7.30
2018-06-11T14:30:35.597Z,10.27
2018-06-11T14:34:52.783Z,8.00
2018-06-11T14:36:59.154Z,7.47
2018-06-11T14:39:07.243Z,9.00
2018-06-11T14:41:13.189Z,10.73
2018-06-11T14:43:18.915Z,7.50
2018-06-11T14:45:25.280Z,13.63
2018-06-11T14:47:32.489Z,6.10
2018-06-11T14:49:39.127Z,9.33
2018-06-11T14:51:45.558Z,4.57
2018-06-11T14:53:51.901Z,7.03
2018-06-11T14:56:02.007Z,5.97
2018-06-11T14:58:08.768Z,10.47
2018-06-11T15:00:15.310Z,5.67
2018-06-11T15:02:23.142Z,5.47
2018-06-11T15:04:28.815Z,6.70
2018-06-11T15:06:35.108Z,4.20
2018-06-11T15:08:41.290Z,6.00
2018-06-11T15:10:47.558Z,6.67
2018-06-11T15:12:54.143Z,4.03
2018-06-11T15:15:00.978Z,8.13
2018-06-11T15:17:08.190Z,4.30
2018-06-11T15:19:14.065Z,5.90
2018-06-11T15:21:19.429Z,5.20
2018-06-11T15:23:25.366Z,7.77
2018-06-11T15:25:31.936Z,6.27
2018-06-11T15:27:38.090Z,8.00
2018-06-11T15:29:44.254Z,5.10
2018-06-11T15:31:50.327Z,6.43
2018-06-11T15:33:56.067Z,4.60
2018-06-11T15:36:01.881Z,6.70
2018-06-11T15:38:08.149Z,8.60
2018-06-11T15:40:13.892Z,10.20
2018-06-11T15:42:20.544Z,5.30
2018-06-11T15:44:26.830Z,6.80
2018-06-11T15:46:32.785Z,10.57
2018-06-11T15:48:38.859Z,6.90
2018-06-11T15:50:49.744Z,4.73
2018-06-11T15:52:55.292Z,3.73
2018-06-11T15:55:01.186Z,7.27
2018-06-11T15:57:07.954Z,7.67
2018-06-11T15:59:23.199Z,7.30
2018-06-11T16:01:32.814Z,10.73
2018-06-11T16:03:46.638Z,6.30
2018-06-11T16:05:51.913Z,5.30
2018-06-11T16:07:57.562Z,4.93
2018-06-11T16:10:04.503Z,5.77
2018-06-11T16:12:12.276Z,4.30
2018-06-11T16:14:21.507Z,5.97
2018-06-11T16:16:32.065Z,7.00
2018-06-11T16:18:38.060Z,4.13
2018-06-11T16:20:44.150Z,5.10
2018-06-11T16:22:49.732Z,5.70
2018-06-11T16:24:56.784Z,4.07
2018-06-11T16:27:05.545Z,7.83
2018-06-11T16:29:13.036Z,8.80
2018-06-11T16:31:19.248Z,7.20
2018-06-11T16:33:26.609Z,7.37
2018-06-11T16:35:32.709Z,4.43
2018-06-11T16:37:45.337Z,4.00
2018-06-11T16:39:51.151Z,9.43
2018-06-11T16:41:58.351Z,5.70
2018-06-11T16:44:05.018Z,5.43
2018-06-11T16:46:11.936Z,4.20
2018-06-11T16:48:17.933Z,7.70
2018-06-11T16:50:24.882Z,6.20
2018-06-11T16:52:30.971Z,4.57
2018-06-11T16:54:38.499Z,5.03
2018-06-11T16:56:44.338Z,3.53
2018-06-11T16:58:51.986Z,5.33
2018-06-11T17:00:58.639Z,4.83
2018-06-11T17:03:05.843Z,5.80
2018-06-11T17:05:11.691Z,6.40
2018-06-11T17:07:17.683Z,5.87
2018-06-11T17:09:24.545Z,7.13
2018-06-11T17:11:31.255Z,8.07
2018-06-11T17:13:39.069Z,5.20
2018-06-11T17:15:46.688Z,6.17
2018-06-11T17:17:54.372Z,9.60
2018-06-11T17:20:00.406Z,7.90
2018-06-11T17:22:06.230Z,8.23
2018-06-11T17:24:11.778Z,5.40
2018-06-11T17:26:17.128Z,5.40
2018-06-11T17:28:23.467Z,14.53
2018-06-11T17:30:29.660Z,4.40
2018-06-11T17:32:35.476Z,5.97
2018-06-11T17:34:41.977Z,13.50
2018-06-11T17:36:48.165Z,5.30
2018-06-11T17:38:54.840Z,8.80
2018-06-11T17:41:00.877Z,6.13
2018-06-11T17:43:08.286Z,5.20
2018-06-11T17:45:14.264Z,11.83
2018-06-11T17:47:20.971Z,6.27
2018-06-11T17:49:28.168Z,7.23
2018-06-11T17:51:34.277Z,5.13
2018-06-11T17:53:40.412Z,5.57
2018-06-11T17:55:46.511Z,5.40
2018-06-11T17:57:52.043Z,11.37
2018-06-11T17:59:57.642Z,6.87
2018-06-11T18:02:04.122Z,4.13
2018-06-11T18:04:11.204Z,8.43
2018-06-11T18:06:16.691Z,6.10
2018-06-11T18:08:30.358Z,4.87
2018-06-11T18:10:36.245Z,7.20
2018-06-11T18:12:41.916Z,6.37
2018-06-11T18:14:48.924Z,5.73
2018-06-11T18:16:54.955Z,5.67
2018-06-11T18:19:00.947Z,5.90
2018-06-11T18:21:06.958Z,7.10
2018-06-11T18:23:12.899Z,5.77
2018-06-11T18:25:18.814Z,5.10
2018-06-11T18:27:31.073Z,8.77
2018-06-11T18:29:47.041Z,7.80
2018-06-11T18:32:03.762Z,4.00
2018-06-11T18:34:17.983Z,4.33
2018-06-11T18:36:25.806Z,5.70
2018-06-11T18:38:34.316Z,7.63
2018-06-11T18:40:46.139Z,8.40
2018-06-11T18:43:04.211Z,4.90
2018-06-11T18:45:17.884Z,7.07
2018-06-11T18:47:37.095Z,12.97
2018-06-11T18:49:55.853Z,5.33
2018-06-11T18:52:10.283Z,7.47
2018-06-11T18:54:31.180Z,14.23
2018-06-11T18:56:37.517Z,6.90
2018-06-11T18:58:43.415Z,5.73
2018-06-11T19:00:52.612Z,8.70
2018-06-11T19:03:00.920Z,6.73
2018-06-11T19:05:10.499Z,8.20
2018-06-11T19:07:27.978Z,7.10
2018-06-11T19:09:44.340Z,6.90
2018-06-11T19:11:54.458Z,6.97
2018-06-11T19:14:10.528Z,9.00
2018-06-11T19:16:18.578Z,4.77
2018-06-11T19:18:25.213Z,4.73
2018-06-11T19:20:30.775Z,7.90
2018-06-11T19:22:36.537Z,6.27
2018-06-11T19:24:43.415Z,4.67
2018-06-11T19:26:49.858Z,9.23
2018-06-11T19:28:55.686Z,8.53
2018-06-11T19:31:08.569Z,4.80
2018-06-11T19:33:14.463Z,7.10
2018-06-11T19:35:19.865Z,5.97
2018-06-11T19:37:25.826Z,4.20
2018-06-11T19:39:31.528Z,9.10
2018-06-11T19:41:37.222Z,5.50
2018-06-11T19:43:46.975Z,5.77
2018-06-11T19:45:53.466Z,7.93
2018-06-11T19:47:59.897Z,8.90
2018-06-11T19:50:07.095Z,5.17
2018-06-11T19:52:13.733Z,8.40
2018-06-11T19:54:26.477Z,8.73
2018-06-11T19:56:35.611Z,6.63
2018-06-11T19:58:41.465Z,6.43
2018-06-11T20:00:48.315Z,7.10
2018-06-11T20:02:53.521Z,7.20
2018-06-11T20:04:58.923Z,8.37
2018-06-11T20:07:05.562Z,8.80
2018-06-11T20:09:11.144Z,9.17
2018-06-11T20:11:20.339Z,5.93
2018-06-11T20:13:26.310Z,5.67
2018-06-11T20:15:32.513Z,6.07
2018-06-11T20:17:37.769Z,16.33
2018-06-11T20:19:44.468Z,4.53
2018-06-11T20:21:51.011Z,4.97
2018-06-11T20:23:59.316Z,7.13
2018-06-11T20:26:05.817Z,11.37
2018-06-11T20:28:12.497Z,8.43
2018-06-11T20:30:18.214Z,8.97
2018-06-11T20:32:24.420Z,6.10
2018-06-11T20:34:30.687Z,5.10
2018-06-11T20:36:39.740Z,12.87
2018-06-11T20:38:48.161Z,4.93
2018-06-11T20:40:53.636Z,4.90
2018-06-11T20:42:59.188Z,6.90
2018-06-11T20:45:05.016Z,4.60
2018-06-11T20:47:10.727Z,8.97
2018-06-11T20:49:15.975Z,10.00
2018-06-11T20:51:21.504Z,9.40
2018-06-11T20:53:27.075Z,6.83
2018-06-11T20:55:32.148Z,7.10
2018-06-11T20:57:37.900Z,7.40
2018-06-11T20:59:43.343Z,10.33
2018-06-11T21:01:54.460Z,4.13
2018-06-11T21:04:00.450Z,4.20
2018-06-11T21:06:06.134Z,6.97
2018-06-11T21:08:12.361Z,7.73
2018-06-11T21:10:19.033Z,6.30
2018-06-11T21:12:24.194Z,14.90
2018-06-11T21:14:29.646Z,6.20
2018-06-11T21:16:36.992Z,6.47
2018-06-11T21:18:42.314Z,6.17
2018-06-11T21:20:47.982Z,14.43
2018-06-11T21:22:53.129Z,18.13
2018-06-11T21:24:59.962Z,9.33
2018-06-11T21:27:05.254Z,7.67
2018-06-11T21:29:11.692Z,5.67
2018-06-11T21:31:16.917Z,6.13
2018-06-11T21:33:22.393Z,5.57
2018-06-11T21:35:27.844Z,7.13
2018-06-11T21:37:33.167Z,7.83
2018-06-11T21:39:37.932Z,7.27
2018-06-11T21:41:43.352Z,5.27
2018-06-11T21:43:48.531Z,9.10
2018-06-11T21:45:54.002Z,9.17
2018-06-11T21:47:59.085Z,4.00
2018-06-11T21:50:05.435Z,6.30
2018-06-11T21:52:11.411Z,8.07
2018-06-11T21:54:16.748Z,9.03
2018-06-11T21:56:21.928Z,5.73
2018-06-11T21:58:27.374Z,13.93
2018-06-11T22:00:32.202Z,5.83
2018-06-11T22:02:37.198Z,8.33
2018-06-11T22:04:42.565Z,7.80
2018-06-11T22:06:47.787Z,5.60
2018-06-11T22:08:52.797Z,6.37
2018-06-11T22:10:58.337Z,5.80
2018-06-11T22:13:03.625Z,8.30
2018-06-11T22:15:08.749Z,6.07
2018-06-11T22:17:14.001Z,7.90
2018-06-11T22:19:19.221Z,6.70
2018-06-11T22:21:25.420Z,6.37
2018-06-11T22:23:34.667Z,4.00
2018-06-11T22:25:41.667Z,8.57
2018-06-11T22:27:46.897Z,5.67
2018-06-11T22:29:51.935Z,5.03
2018-06-11T22:31:57.731Z,12.07
2018-06-11T22:34:04.540Z,7.23
2018-06-11T22:36:10.627Z,6.87
2018-06-11T22:38:17.562Z,5.30
2018-06-11T22:40:26.147Z,7.10
2018-06-11T22:42:34.567Z,9.17
2018-06-11T22:44:40.774Z,9.30
2018-06-11T22:46:48.989Z,8.00
2018-06-11T22:48:56.080Z,14.73
2018-06-11T22:51:02.203Z,10.43
2018-06-11T22:53:10.122Z,8.80
2018-06-11T22:55:16.371Z,6.50
2018-06-11T22:57:22.101Z,12.83
2018-06-11T22:59:28.760Z,7.87
2018-06-11T23:01:35.308Z,9.03
2018-06-11T23:03:42.038Z,5.50
2018-06-11T23:05:49.775Z,7.53
2018-06-11T23:07:55.630Z,8.83
2018-06-11T23:10:00.881Z,7.07
2018-06-11T23:12:05.829Z,5.43
2018-06-11T23:14:21.462Z,9.43
2018-06-11T23:16:28.067Z,8.67
2018-06-11T23:18:33.059Z,10.63
2018-06-11T23:20:42.377Z,6.67
2018-06-11T23:22:47.934Z,6.47
2018-06-11T23:24:53.880Z,12.80
2018-06-11T23:26:59.586Z,8.60
2018-06-11T23:29:04.514Z,8.83
2018-06-11T23:31:10.145Z,7.13
2018-06-11T23:33:16.623Z,8.30
2018-06-11T23:35:23.136Z,10.70
2018-06-11T23:37:29.241Z,10.07
2018-06-11T23:39:35.856Z,12.43
2018-06-11T23:41:44.556Z,11.67
2018-06-11T23:43:51.262Z,12.50
2018-06-11T23:45:57.448Z,7.00
2018-06-11T23:48:04.331Z,10.60
2018-06-11T23:50:09.840Z,11.30
2018-06-11T23:52:16.882Z,9.07
2018-06-11T23:54:21.735Z,11.90
2018-06-11T23:56:26.528Z,12.10
2018-06-11T23:58:31.355Z,8.10
